MDCY

Details ICAO MDCY (AZS)
Name Samana El Catey International
Region Dominican Republic
Timezone America/Santo_Domingo (UTC-4.0)
Plans Departing 16
Arriving 25
Stats Elevation 12 ft / 4 m (AMSL)
Location 19.264917° -69.732084°
Runways 1
Magnetic Variation 11.590° W
Sunrise 2017-12-13 11:05:10 UTC / 2017-12-13 07:05:10 Local
Sunset 2017-12-13 22:04:06 UTC / 2017-12-13 18:04:06 Local
Advertisement - Login to hide

Runways

ID Width Length Bearing (true) Bearing (mag) Surface Threshold Offset Overrun Length
07 148 ft / 45 m 9,126 ft / 2,782 m 55.49° 67.08° Asphalt 0 ft / 0 m 200 ft / 61 m
25 148 ft / 45 m 9,126 ft / 2,782 m 235.50° 247.09° Asphalt 0 ft / 0 m 200 ft / 61 m

Map

Weather


0- 5 10 15 20 25 30 35+ Temperature / ° C

Clouds and Precipitation
Forecast for 2017-12-13 12:00 UTC. Updated 6 minutes ago

Ground ~20,000 ft ~40,000 ft Winds

METAR

MDCY 131100Z 00000KT 9999 FEW020 SCT300 21/20 Q1014

TAF

Not found

Frequencies

Ground 121.70 MHz Catey Ground
Tower 118.35 MHz Catey Tower
Warning: Do not use this data for real-world aviation or navigation. No guarantee of current accuracy is given.